Time;durP1;ratioP1;P1;durP2;ratioP2;P2;SDS_P1;SDS_P2;PMS_P1;PMS_P2;Temp;Humidity;BMP_temperature;BMP_pressure;BME280_temperature;BME280_humidity;BME280_pressure;Samples;Min_cycle;Max_cycle;Signal;HPM_P1;HPM_P2
2022/09/24 00:01:49;;;;;;;0.00;0.00;;;9.80;99.90;;;;;;5006743;28;20707;-77
2022/09/24 00:04:17;;;;;;;0.10;0.10;;;9.80;99.90;;;;;;4994362;28;20231;-77
2022/09/24 00:06:48;;;;;;;0.10;0.10;;;9.80;99.90;;;;;;5009581;28;20283;-78
2022/09/24 00:09:20;;;;;;;0.10;0.10;;;9.80;99.90;;;;;;5012443;28;20203;-77
2022/09/24 00:11:50;;;;;;;0.05;0.05;;;9.80;99.90;;;;;;5004075;28;20220;-77
2022/09/24 00:14:18;;;;;;;0.10;0.10;;;9.80;99.90;;;;;;4996805;28;20191;-77
2022/09/24 00:16:46;;;;;;;0.10;0.10;;;9.80;99.90;;;;;;5013062;28;20250;-77
2022/09/24 00:19:14;;;;;;;0.10;0.10;;;9.80;99.90;;;;;;5011745;28;20560;-77
2022/09/24 00:21:42;;;;;;;0.10;0.10;;;9.80;99.90;;;;;;5012604;28;20249;-77
2022/09/24 00:26:48;;;;;;;0.10;0.10;;;9.80;99.90;;;;;;5012303;28;20216;-77
2022/09/24 00:27:04;;;;;;;0.10;0.10;;;9.80;99.90;;;;;;5011443;28;20207;-77
2022/09/24 00:29:32;;;;;;;0.10;0.10;;;9.90;99.90;;;;;;5011370;28;20215;-77
2022/09/24 00:32:02;;;;;;;0.10;0.10;;;9.90;99.90;;;;;;4997907;28;20226;-77
2022/09/24 00:34:30;;;;;;;0.10;0.10;;;9.90;99.90;;;;;;4992831;28;20196;-77
2022/09/24 00:36:57;;;;;;;0.10;0.10;;;9.90;99.90;;;;;;5006285;28;20254;-76
2022/09/24 00:39:27;;;;;;;0.10;0.10;;;9.90;99.90;;;;;;5012120;28;20257;-77
2022/09/24 00:41:55;;;;;;;0.10;0.10;;;9.80;99.90;;;;;;5012045;28;20211;-77
2022/09/24 00:44:49;;;;;;;0.10;0.10;;;9.80;99.90;;;;;;5012023;28;20227;-78
2022/09/24 00:47:26;;;;;;;0.10;0.10;;;9.90;99.90;;;;;;5005312;28;20257;-77
2022/09/24 00:50:04;;;;;;;0.10;0.10;;;9.90;99.90;;;;;;5012627;28;20269;-77
2022/09/24 00:52:33;;;;;;;0.00;0.00;;;9.90;99.90;;;;;;5005293;28;20219;-77
2022/09/24 00:55:02;;;;;;;0.10;0.10;;;9.80;99.90;;;;;;5012273;28;20212;-77
2022/09/24 00:57:31;;;;;;;0.10;0.10;;;10.00;99.90;;;;;;5011089;28;20261;-77
2022/09/24 00:59:59;;;;;;;0.10;0.10;;;9.90;99.90;;;;;;5011333;28;20258;-78
2022/09/24 01:02:27;;;;;;;0.10;0.10;;;10.00;99.90;;;;;;5011277;28;20254;-79
2022/09/24 01:04:55;;;;;;;0.10;0.10;;;10.00;99.90;;;;;;5012434;28;20278;-78
2022/09/24 01:07:24;;;;;;;0.10;0.10;;;9.90;99.90;;;;;;5012426;28;20674;-78
2022/09/24 01:09:52;;;;;;;0.10;0.10;;;9.90;99.90;;;;;;5013480;28;20202;-78
2022/09/24 01:12:30;;;;;;;0.10;0.10;;;9.90;99.90;;;;;;5011263;28;20596;-78
2022/09/24 01:15:10;;;;;;;0.10;0.10;;;9.80;99.90;;;;;;5015466;28;20219;-78
2022/09/24 01:17:45;;;;;;;0.10;0.10;;;9.90;99.90;;;;;;5005895;28;20254;-78
2022/09/24 01:20:55;;;;;;;0.10;0.10;;;9.90;99.90;;;;;;5015483;28;20207;-78
2022/09/24 01:23:45;;;;;;;0.10;0.10;;;9.90;99.90;;;;;;4988470;28;20231;-75
2022/09/24 01:26:38;;;;;;;0.10;0.10;;;9.90;99.90;;;;;;4994653;28;20220;-75
2022/09/24 01:29:28;;;;;;;0.10;0.10;;;9.80;99.90;;;;;;4992063;28;20603;-75
2022/09/24 01:32:02;;;;;;;0.10;0.10;;;9.80;99.90;;;;;;5004359;28;20625;-75
2022/09/24 01:34:37;;;;;;;0.10;0.10;;;9.70;99.90;;;;;;5010623;28;20195;-75
2022/09/24 01:37:06;;;;;;;0.10;0.10;;;9.80;99.90;;;;;;5011253;28;20218;-75
2022/09/24 01:39:37;;;;;;;0.10;0.10;;;9.80;99.90;;;;;;5011187;28;20200;-77
2022/09/24 01:42:06;;;;;;;0.10;0.10;;;9.70;99.90;;;;;;5011054;28;20278;-77
2022/09/24 01:44:36;;;;;;;0.10;0.10;;;9.80;99.90;;;;;;5011315;28;20690;-78
2022/09/24 01:47:06;;;;;;;0.10;0.10;;;9.70;99.90;;;;;;5010077;28;20204;-77
2022/09/24 01:49:34;;;;;;;0.10;0.10;;;9.70;99.90;;;;;;5008913;28;20675;-78
2022/09/24 01:52:06;;;;;;;0.10;0.10;;;9.70;99.90;;;;;;5010802;28;20575;-78
2022/09/24 01:54:37;;;;;;;0.10;0.10;;;9.70;99.90;;;;;;4992042;28;20204;-78
2022/09/24 01:57:10;;;;;;;0.10;0.10;;;9.60;99.90;;;;;;5009985;28;20222;-78
2022/09/24 01:59:43;;;;;;;0.10;0.10;;;9.70;99.90;;;;;;5011438;28;20721;-78
2022/09/24 02:02:18;;;;;;;0.10;0.10;;;9.70;99.90;;;;;;5026234;23;20266;-75
2022/09/24 02:04:51;;;;;;;0.10;0.10;;;9.60;99.90;;;;;;4972788;28;20204;-76
2022/09/24 02:07:24;;;;;;;0.10;0.10;;;9.60;99.90;;;;;;4972930;28;20261;-76
2022/09/24 02:09:52;;;;;;;0.10;0.10;;;9.70;99.90;;;;;;4972948;28;20197;-74
2022/09/24 02:12:28;;;;;;;0.10;0.10;;;9.70;99.90;;;;;;4970600;28;20284;-74
2022/09/24 02:15:02;;;;;;;0.10;0.10;;;9.70;99.90;;;;;;4955140;28;20201;-73
2022/09/24 02:17:35;;;;;;;0.10;0.10;;;9.70;99.90;;;;;;4972251;28;20205;-73
2022/09/24 02:20:07;;;;;;;0.10;0.10;;;9.60;99.90;;;;;;4972561;28;20229;-74
2022/09/24 02:22:35;;;;;;;0.10;0.10;;;9.60;99.90;;;;;;4971792;28;20220;-73
2022/09/24 02:25:05;;;;;;;0.00;0.00;;;9.60;99.90;;;;;;4987647;28;20221;-75
2022/09/24 02:27:33;;;;;;;0.10;0.10;;;9.70;99.90;;;;;;4972394;28;20201;-74
2022/09/24 02:30:03;;;;;;;0.10;0.10;;;9.50;99.90;;;;;;4972567;28;20616;-74
2022/09/24 02:32:34;;;;;;;0.10;0.10;;;9.60;99.90;;;;;;4971627;28;20221;-74
2022/09/24 02:35:05;;;;;;;0.10;0.10;;;9.60;99.90;;;;;;4972452;28;20205;-74
2022/09/24 02:37:36;;;;;;;0.10;0.10;;;9.50;99.90;;;;;;4972570;28;20177;-74
2022/09/24 02:40:06;;;;;;;0.10;0.10;;;9.50;99.90;;;;;;4972086;28;20575;-74
2022/09/24 02:42:34;;;;;;;0.10;0.10;;;9.50;99.90;;;;;;4972080;28;20220;-74
2022/09/24 02:45:04;;;;;;;0.10;0.10;;;9.30;99.90;;;;;;4956528;28;20260;-76
2022/09/24 02:47:32;;;;;;;0.10;0.10;;;9.30;99.90;;;;;;4970591;28;20244;-73
2022/09/24 02:50:00;;;;;;;0.10;0.10;;;9.40;99.90;;;;;;4973339;28;20264;-74
2022/09/24 02:52:27;;;;;;;0.10;0.10;;;9.30;99.90;;;;;;4979910;28;20229;-74
2022/09/24 02:54:55;;;;;;;0.10;0.10;;;9.30;99.90;;;;;;4997151;28;20208;-74
2022/09/24 02:57:23;;;;;;;0.10;0.10;;;9.30;99.90;;;;;;4982989;28;20256;-74
2022/09/24 02:59:51;;;;;;;0.00;0.00;;;9.30;99.90;;;;;;4975009;28;20263;-74
2022/09/24 03:02:20;;;;;;;0.00;0.00;;;9.30;99.90;;;;;;4976623;28;20240;-74
2022/09/24 03:04:48;;;;;;;0.10;0.10;;;9.30;99.90;;;;;;4977428;28;20660;-77
2022/09/24 03:07:17;;;;;;;0.10;0.10;;;9.50;99.90;;;;;;4974836;28;20221;-77
2022/09/24 03:09:44;;;;;;;0.10;0.10;;;9.50;99.90;;;;;;4975777;28;20247;-77
2022/09/24 03:12:12;;;;;;;0.10;0.10;;;9.40;99.90;;;;;;4974836;28;20689;-74
2022/09/24 03:14:40;;;;;;;0.10;0.10;;;9.50;99.90;;;;;;4975314;28;20584;-73
2022/09/24 03:17:08;;;;;;;0.10;0.10;;;9.50;99.90;;;;;;4975155;28;20220;-74
2022/09/24 03:19:38;;;;;;;0.00;0.00;;;9.40;99.90;;;;;;4975433;28;20201;-73
2022/09/24 03:22:06;;;;;;;0.10;0.10;;;9.50;99.90;;;;;;4965865;28;20720;-75
2022/09/24 03:24:33;;;;;;;0.00;0.00;;;9.60;99.90;;;;;;4965901;28;20205;-76
2022/09/24 03:27:01;;;;;;;0.10;0.10;;;9.60;99.90;;;;;;4972749;28;20253;-74
2022/09/24 03:32:14;;;;;;;0.10;0.10;;;9.50;99.90;;;;;;4973564;28;20225;-74
2022/09/24 03:34:43;;;;;;;0.10;0.10;;;9.40;99.90;;;;;;4975285;28;20197;-74
2022/09/24 03:37:11;;;;;;;0.10;0.10;;;9.40;99.90;;;;;;4973894;28;20205;-75
2022/09/24 03:39:39;;;;;;;0.10;0.10;;;9.30;99.90;;;;;;4975574;28;20197;-75
2022/09/24 03:42:07;;;;;;;0.10;0.10;;;9.40;99.90;;;;;;4953702;28;20225;-75
2022/09/24 03:44:34;;;;;;;0.10;0.10;;;9.40;99.90;;;;;;4975838;28;20205;-75
2022/09/24 03:47:02;;;;;;;0.00;0.00;;;9.40;99.90;;;;;;4978756;28;20716;-75
2022/09/24 03:49:30;;;;;;;0.10;0.10;;;9.40;99.90;;;;;;4979644;28;20252;-74
2022/09/24 03:51:59;;;;;;;0.10;0.10;;;9.30;99.90;;;;;;4976772;28;20201;-74
2022/09/24 03:54:30;;;;;;;0.10;0.10;;;9.30;99.90;;;;;;4974984;28;20247;-74
2022/09/24 03:56:57;;;;;;;0.10;0.10;;;9.30;99.90;;;;;;4975150;28;20197;-74
2022/09/24 03:59:25;;;;;;;0.10;0.10;;;9.20;99.90;;;;;;4974050;28;20201;-74
2022/09/24 04:01:54;;;;;;;0.10;0.10;;;9.20;99.90;;;;;;4973331;28;20244;-74
2022/09/24 04:04:21;;;;;;;0.10;0.10;;;9.10;99.90;;;;;;4974925;28;20207;-75
2022/09/24 04:06:49;;;;;;;0.10;0.10;;;9.20;99.90;;;;;;4974142;28;20733;-75
2022/09/24 04:09:18;;;;;;;0.10;0.10;;;9.10;99.90;;;;;;4973854;28;20263;-75
2022/09/24 04:11:46;;;;;;;0.10;0.10;;;9.10;99.90;;;;;;4974354;28;20212;-74
2022/09/24 04:14:14;;;;;;;0.10;0.10;;;9.10;99.90;;;;;;4974245;28;20243;-74
2022/09/24 04:16:42;;;;;;;0.10;0.10;;;9.20;99.90;;;;;;4972241;28;20201;-74
2022/09/24 04:19:10;;;;;;;0.10;0.10;;;9.10;99.90;;;;;;4964832;28;20188;-75
2022/09/24 04:21:38;;;;;;;0.10;0.10;;;9.00;99.90;;;;;;4978110;28;20618;-73
2022/09/24 04:24:06;;;;;;;0.10;0.10;;;9.00;99.90;;;;;;4974968;28;20264;-74
2022/09/24 04:26:35;;;;;;;0.10;0.10;;;9.00;99.90;;;;;;4974464;28;20243;-74
2022/09/24 04:29:05;;;;;;;0.10;0.10;;;9.10;99.90;;;;;;4974060;28;20274;-78
2022/09/24 04:31:33;;;;;;;0.00;0.00;;;9.10;99.90;;;;;;4974939;28;20209;-74
2022/09/24 04:34:01;;;;;;;0.00;0.00;;;9.00;99.90;;;;;;4968573;28;20221;-74
2022/09/24 04:36:28;;;;;;;0.10;0.10;;;9.00;99.90;;;;;;4973880;28;20209;-74
2022/09/24 04:38:56;;;;;;;0.10;0.10;;;9.00;99.90;;;;;;4968370;28;20218;-75
2022/09/24 04:41:24;;;;;;;0.10;0.10;;;9.00;99.90;;;;;;4966030;28;20212;-74
2022/09/24 04:43:53;;;;;;;0.10;0.10;;;8.90;99.90;;;;;;4973676;28;20256;-75
2022/09/24 04:46:21;;;;;;;0.10;0.10;;;8.90;99.90;;;;;;4966570;28;20220;-74
2022/09/24 04:48:50;;;;;;;0.10;0.10;;;8.90;99.90;;;;;;4988748;28;20200;-75
2022/09/24 04:51:20;;;;;;;0.10;0.10;;;8.80;99.90;;;;;;4982318;28;20287;-75
2022/09/24 04:53:49;;;;;;;0.10;0.10;;;8.80;99.90;;;;;;4977415;28;20231;-74
2022/09/24 04:56:17;;;;;;;0.10;0.10;;;8.90;99.90;;;;;;4984900;28;20278;-75
2022/09/24 04:58:49;;;;;;;0.10;0.10;;;8.80;99.90;;;;;;4973788;28;20197;-75
2022/09/24 05:01:19;;;;;;;0.10;0.10;;;8.90;99.90;;;;;;4973382;28;20201;-74
2022/09/24 05:03:47;;;;;;;0.10;0.10;;;8.90;99.90;;;;;;4954604;28;20768;-75
2022/09/24 05:06:14;;;;;;;0.10;0.10;;;8.90;99.90;;;;;;4961774;28;20197;-74
2022/09/24 05:08:42;;;;;;;0.10;0.10;;;8.90;99.90;;;;;;4973585;28;20201;-76
2022/09/24 05:11:11;;;;;;;0.10;0.10;;;9.00;99.90;;;;;;4973394;28;20233;-74
2022/09/24 05:13:41;;;;;;;0.10;0.10;;;9.00;99.90;;;;;;4977509;28;20227;-76
2022/09/24 05:16:09;;;;;;;0.10;0.10;;;9.00;99.90;;;;;;4979888;28;20215;-75
2022/09/24 05:18:38;;;;;;;0.10;0.10;;;9.10;99.90;;;;;;4971588;28;20201;-74
2022/09/24 05:21:07;;;;;;;0.10;0.10;;;9.00;99.90;;;;;;4972994;28;20313;-73
2022/09/24 05:23:35;;;;;;;0.10;0.10;;;9.10;99.90;;;;;;4973373;28;20225;-75
2022/09/24 05:28:49;;;;;;;0.10;0.10;;;9.00;99.90;;;;;;4972544;28;20239;-74
2022/09/24 05:31:17;;;;;;;0.10;0.10;;;9.10;99.90;;;;;;4967951;28;20208;-74
2022/09/24 05:33:47;;;;;;;0.10;0.10;;;9.10;99.90;;;;;;4973727;28;20704;-76
2022/09/24 05:36:14;;;;;;;0.00;0.00;;;9.10;99.90;;;;;;4973671;28;20208;-73
2022/09/24 05:38:42;;;;;;;0.10;0.10;;;9.00;99.90;;;;;;4974399;28;20691;-74
2022/09/24 05:41:10;;;;;;;0.10;0.10;;;9.00;99.90;;;;;;4970359;28;20194;-76
2022/09/24 05:43:38;;;;;;;0.10;0.10;;;9.00;99.90;;;;;;4977669;28;20217;-74
2022/09/24 05:46:06;;;;;;;0.10;0.10;;;9.00;99.90;;;;;;4975851;28;20208;-76
2022/09/24 05:48:34;;;;;;;0.10;0.10;;;9.00;99.90;;;;;;4975545;28;20209;-74
2022/09/24 05:51:04;;;;;;;0.10;0.10;;;9.00;99.90;;;;;;4982370;28;20205;-74
2022/09/24 05:53:32;;;;;;;0.10;0.10;;;9.00;99.90;;;;;;4984216;28;20279;-76
2022/09/24 05:56:00;;;;;;;0.10;0.10;;;9.10;99.90;;;;;;4980887;28;20205;-76
2022/09/24 05:58:28;;;;;;;0.10;0.10;;;9.10;99.90;;;;;;4966798;28;20209;-76
2022/09/24 06:00:58;;;;;;;0.10;0.10;;;9.20;99.90;;;;;;4965631;28;20559;-75
2022/09/24 06:03:28;;;;;;;0.10;0.10;;;9.20;99.90;;;;;;4972109;28;20229;-76
2022/09/24 06:05:58;;;;;;;0.10;0.10;;;9.20;99.90;;;;;;4973244;28;20200;-75
2022/09/24 06:08:29;;;;;;;0.10;0.10;;;9.30;99.90;;;;;;4972740;28;20276;-75
2022/09/24 06:10:59;;;;;;;0.10;0.10;;;9.30;99.90;;;;;;4978959;28;20857;-74
2022/09/24 06:13:26;;;;;;;0.10;0.10;;;9.30;99.90;;;;;;4970344;28;20217;-76
2022/09/24 06:16:00;;;;;;;0.10;0.10;;;9.40;99.90;;;;;;4966132;28;20217;-77
2022/09/24 06:18:28;;;;;;;0.10;0.10;;;9.40;99.90;;;;;;4961287;28;20205;-74
2022/09/24 06:21:00;;;;;;;0.10;0.10;;;9.50;99.90;;;;;;4970354;28;20567;-75
2022/09/24 06:23:30;;;;;;;0.10;0.10;;;9.50;99.90;;;;;;4967262;28;20778;-75
2022/09/24 06:25:58;;;;;;;0.10;0.10;;;9.60;99.90;;;;;;4975123;28;20279;-76
2022/09/24 06:28:25;;;;;;;0.10;0.10;;;9.70;99.90;;;;;;4977319;28;20283;-76
2022/09/24 06:30:53;;;;;;;0.10;0.10;;;9.80;99.90;;;;;;4969370;28;20578;-77
2022/09/24 06:33:22;;;;;;;0.10;0.10;;;9.90;99.90;;;;;;4975313;28;20217;-77
2022/09/24 06:35:50;;;;;;;0.10;0.10;;;10.00;99.90;;;;;;4976790;28;20205;-77
2022/09/24 06:38:20;;;;;;;0.10;0.10;;;10.10;99.90;;;;;;4959277;28;20235;-77
2022/09/24 06:40:49;;;;;;;0.10;0.10;;;10.20;99.90;;;;;;4967231;28;20435;-77
2022/09/24 06:43:17;;;;;;;0.10;0.10;;;10.30;99.90;;;;;;4969668;28;20221;-76
2022/09/24 06:45:45;;;;;;;0.10;0.10;;;10.30;99.90;;;;;;4979474;28;20200;-78
2022/09/24 06:48:14;;;;;;;0.10;0.10;;;10.40;99.90;;;;;;4978254;28;20383;-77
2022/09/24 06:50:46;;;;;;;0.10;0.10;;;10.50;99.90;;;;;;4982876;28;20193;-76
2022/09/24 06:53:14;;;;;;;0.10;0.10;;;10.50;99.90;;;;;;4976929;28;20715;-76
2022/09/24 06:55:42;;;;;;;0.10;0.10;;;10.50;99.90;;;;;;4974414;28;20197;-77
2022/09/24 06:58:13;;;;;;;0.10;0.10;;;10.60;99.90;;;;;;4972911;28;20209;-77
2022/09/24 07:00:41;;;;;;;0.10;0.10;;;10.70;99.90;;;;;;4975877;28;20260;-76
2022/09/24 07:03:14;;;;;;;0.10;0.10;;;10.70;99.90;;;;;;4974284;28;20243;-76
2022/09/24 07:05:42;;;;;;;0.10;0.10;;;10.80;99.90;;;;;;4955483;29;20209;-77
2022/09/24 07:08:11;;;;;;;0.10;0.10;;;10.90;99.90;;;;;;4975004;28;20215;-76
2022/09/24 07:10:42;;;;;;;0.10;0.10;;;10.90;99.90;;;;;;4975635;28;20197;-76
2022/09/24 07:13:13;;;;;;;0.10;0.10;;;11.00;99.90;;;;;;4971339;28;20650;-78
2022/09/24 07:15:41;;;;;;;0.10;0.10;;;11.00;99.90;;;;;;4963771;28;20205;-77
2022/09/24 07:18:09;;;;;;;0.10;0.10;;;11.10;99.90;;;;;;4963137;28;20677;-77
2022/09/24 07:20:37;;;;;;;0.00;0.00;;;11.10;99.90;;;;;;4975064;28;20746;-77
2022/09/24 07:23:05;;;;;;;0.10;0.10;;;11.10;99.90;;;;;;4975939;28;20591;-77
2022/09/24 07:25:34;;;;;;;0.10;0.10;;;11.10;99.90;;;;;;4976177;28;20205;-76
2022/09/24 07:28:03;;;;;;;0.10;0.10;;;11.20;99.90;;;;;;4973985;28;20271;-76
2022/09/24 07:30:34;;;;;;;0.10;0.10;;;11.20;99.90;;;;;;4994806;28;20177;-83
2022/09/24 07:33:01;;;;;;;0.10;0.10;;;11.30;99.90;;;;;;4999009;28;20236;-82
2022/09/24 07:35:30;;;;;;;0.10;0.10;;;11.40;99.90;;;;;;4999838;28;20182;-82
2022/09/24 07:37:59;;;;;;;0.10;0.10;;;11.50;99.90;;;;;;4994497;28;20199;-78
2022/09/24 07:40:28;;;;;;;0.10;0.10;;;11.50;99.90;;;;;;4993590;28;20205;-76
2022/09/24 07:42:56;;;;;;;0.10;0.10;;;11.60;99.90;;;;;;4976820;28;20299;-79
2022/09/24 07:45:26;;;;;;;0.05;0.05;;;11.70;99.90;;;;;;4973545;28;20206;-77
2022/09/24 07:48:00;;;;;;;0.10;0.10;;;11.80;99.90;;;;;;4975859;28;20216;-76
2022/09/24 07:50:30;;;;;;;0.10;0.10;;;11.80;99.90;;;;;;4963006;28;20605;-77
2022/09/24 07:52:59;;;;;;;0.10;0.10;;;11.80;99.90;;;;;;4969440;28;20221;-76
2022/09/24 07:55:27;;;;;;;0.10;0.10;;;11.90;99.90;;;;;;4961757;28;20197;-76
2022/09/24 07:57:55;;;;;;;0.10;0.10;;;11.90;99.90;;;;;;4959374;28;20215;-77
2022/09/24 08:00:25;;;;;;;0.10;0.10;;;12.00;99.90;;;;;;4969340;28;20263;-76
2022/09/24 08:02:55;;;;;;;0.10;0.10;;;12.10;99.90;;;;;;4999363;23;20225;-74
2022/09/24 08:05:24;;;;;;;0.10;0.10;;;12.10;99.90;;;;;;5002491;28;20212;-74
2022/09/24 08:07:52;;;;;;;0.10;0.10;;;12.10;99.90;;;;;;4994628;28;20251;-74
2022/09/24 08:10:21;;;;;;;0.05;0.05;;;12.10;99.90;;;;;;4991362;28;20207;-74
2022/09/24 08:12:48;;;;;;;0.10;0.10;;;12.20;99.90;;;;;;4987738;28;20704;-74
2022/09/24 08:15:16;;;;;;;0.10;0.10;;;12.20;99.90;;;;;;4993116;28;20200;-74
2022/09/24 08:17:44;;;;;;;0.10;0.10;;;12.30;99.90;;;;;;5000541;28;20187;-75
2022/09/24 08:20:12;;;;;;;0.00;0.00;;;12.40;99.90;;;;;;4993388;28;20671;-74
2022/09/24 08:22:42;;;;;;;0.10;0.10;;;12.50;99.90;;;;;;4997127;28;20292;-74
2022/09/24 08:25:09;;;;;;;0.00;0.00;;;12.60;99.90;;;;;;5009114;28;20564;-74
2022/09/24 08:27:37;;;;;;;0.08;0.08;;;12.60;99.90;;;;;;5000033;28;20255;-74
2022/09/24 08:30:06;;;;;;;0.03;0.03;;;12.70;99.90;;;;;;4992847;28;20215;-75
2022/09/24 08:32:34;;;;;;;0.00;0.00;;;12.80;99.90;;;;;;4993678;28;20291;-74
2022/09/24 08:35:02;;;;;;;0.10;0.10;;;12.90;99.90;;;;;;4994229;28;20619;-74
2022/09/24 08:37:30;;;;;;;0.10;0.10;;;13.00;99.90;;;;;;4992102;28;20208;-75
2022/09/24 08:40:00;;;;;;;0.10;0.10;;;13.10;99.90;;;;;;4992376;28;20196;-74
2022/09/24 08:42:36;;;;;;;0.10;0.10;;;13.10;99.90;;;;;;4992645;28;20351;-74
2022/09/24 08:47:55;;;;;;;0.10;0.10;;;13.30;99.90;;;;;;4989097;28;20251;-74
2022/09/24 08:50:26;;;;;;;0.10;0.10;;;13.50;99.90;;;;;;4990808;28;20639;-74
2022/09/24 08:53:03;;;;;;;0.10;0.10;;;13.70;99.90;;;;;;4992784;28;20279;-74
2022/09/24 08:55:37;;;;;;;0.10;0.10;;;13.80;99.90;;;;;;4977299;28;20215;-75
2022/09/24 08:58:24;;;;;;;0.00;0.00;;;13.90;99.90;;;;;;4996799;28;20602;-75
2022/09/24 09:00:58;;;;;;;0.10;0.10;;;14.00;99.90;;;;;;4992152;28;20242;-74
2022/09/24 09:03:35;;;;;;;0.10;0.10;;;14.10;99.90;;;;;;4986526;28;20290;-74
2022/09/24 09:06:10;;;;;;;0.10;0.10;;;14.20;99.90;;;;;;4983649;28;20258;-74
2022/09/24 09:08:48;;;;;;;0.10;0.10;;;14.30;99.90;;;;;;4993129;28;20212;-74
2022/09/24 09:11:39;;;;;;;0.00;0.00;;;14.40;99.90;;;;;;4996536;28;20525;-74
2022/09/24 09:14:16;;;;;;;0.00;0.00;;;14.40;99.90;;;;;;4992537;28;20740;-75
2022/09/24 09:16:49;;;;;;;0.00;0.00;;;14.50;99.90;;;;;;4976305;28;20208;-75
2022/09/24 09:19:18;;;;;;;0.10;0.10;;;14.60;99.90;;;;;;4988514;28;20215;-75
2022/09/24 09:21:52;;;;;;;0.10;0.10;;;14.60;99.90;;;;;;4993803;28;20204;-74
2022/09/24 09:24:25;;;;;;;0.10;0.10;;;14.70;99.90;;;;;;4992195;28;20227;-74
2022/09/24 09:26:57;;;;;;;0.00;0.00;;;14.80;99.90;;;;;;4995082;28;20200;-75
2022/09/24 09:29:27;;;;;;;0.10;0.10;;;14.90;99.90;;;;;;4997713;28;20243;-74
2022/09/24 09:32:05;;;;;;;0.00;0.00;;;15.00;99.90;;;;;;4989096;28;20197;-74
2022/09/24 09:34:45;;;;;;;0.00;0.00;;;15.00;99.90;;;;;;4992718;28;20617;-74
2022/09/24 09:37:23;;;;;;;0.10;0.10;;;15.10;99.90;;;;;;4977902;28;20209;-74
2022/09/24 09:40:01;;;;;;;0.00;0.00;;;15.20;99.90;;;;;;4989127;28;20199;-74
2022/09/24 09:42:33;;;;;;;0.10;0.10;;;15.20;99.90;;;;;;5003747;28;20251;-74
2022/09/24 09:45:02;;;;;;;0.00;0.00;;;15.20;99.90;;;;;;4995076;28;20255;-74
2022/09/24 09:47:40;;;;;;;0.00;0.00;;;15.30;99.90;;;;;;4986858;28;20239;-75
2022/09/24 09:50:19;;;;;;;0.00;0.00;;;15.40;99.90;;;;;;4979996;28;20278;-75
2022/09/24 09:52:47;;;;;;;0.00;0.00;;;15.40;99.90;;;;;;4978917;28;20232;-74
2022/09/24 09:55:26;;;;;;;0.00;0.00;;;15.50;99.90;;;;;;4992410;28;20196;-75
2022/09/24 09:58:09;;;;;;;0.00;0.00;;;15.60;99.90;;;;;;4998876;28;20200;-75
2022/09/24 10:00:37;;;;;;;0.00;0.00;;;15.70;99.90;;;;;;4999428;28;20190;-75
2022/09/24 10:03:05;;;;;;;0.00;0.00;;;15.80;99.90;;;;;;4999247;28;20270;-74
2022/09/24 10:05:34;;;;;;;0.00;0.00;;;15.80;99.90;;;;;;5007815;28;20202;-75
2022/09/24 10:08:02;;;;;;;0.03;0.03;;;15.90;99.90;;;;;;5002853;28;20255;-74
2022/09/24 10:10:30;;;;;;;0.03;0.03;;;16.10;99.90;;;;;;4995886;28;20216;-74
2022/09/24 10:13:08;;;;;;;0.00;0.00;;;16.00;99.90;;;;;;4995924;28;20227;-75
2022/09/24 10:15:48;;;;;;;0.00;0.00;;;16.20;99.90;;;;;;4996789;28;20206;-77
2022/09/24 10:18:21;;;;;;;0.00;0.00;;;16.30;99.90;;;;;;4995302;28;20614;-74
2022/09/24 10:20:49;;;;;;;0.00;0.00;;;16.30;99.90;;;;;;4998202;28;20198;-74
2022/09/24 10:23:20;;;;;;;0.00;0.00;;;16.40;99.90;;;;;;4995399;28;20230;-74
2022/09/24 10:25:58;;;;;;;0.00;0.00;;;16.50;99.90;;;;;;5007820;28;20208;-74
2022/09/24 10:31:17;;;;;;;0.00;0.00;;;16.70;99.90;;;;;;4996597;28;20219;-73
2022/09/24 10:33:48;;;;;;;0.00;0.00;;;16.80;99.90;;;;;;5000691;28;21130;-73
2022/09/24 10:36:20;;;;;;;0.00;0.00;;;16.90;99.90;;;;;;4996921;28;20536;-74
2022/09/24 10:38:48;;;;;;;0.00;0.00;;;17.10;99.90;;;;;;4997188;28;20578;-74
2022/09/24 10:41:26;;;;;;;0.10;0.10;;;17.00;99.90;;;;;;4995398;28;20656;-74
2022/09/24 10:43:56;;;;;;;0.00;0.00;;;17.10;99.90;;;;;;4993473;28;20296;-74
2022/09/24 10:46:43;;;;;;;0.00;0.00;;;17.10;99.90;;;;;;4994932;28;20208;-74
2022/09/24 10:49:21;;;;;;;0.00;0.00;;;17.10;99.90;;;;;;4987716;28;20304;-74
2022/09/24 10:51:56;;;;;;;0.00;0.00;;;17.20;99.90;;;;;;4988001;28;20231;-74
2022/09/24 10:54:40;;;;;;;0.00;0.00;;;17.30;99.90;;;;;;4989916;28;20231;-77
2022/09/24 10:57:19;;;;;;;0.10;0.10;;;17.50;99.90;;;;;;4979445;28;20204;-74
2022/09/24 11:00:00;;;;;;;0.00;0.00;;;17.50;99.90;;;;;;4992251;28;20536;-74
2022/09/24 11:02:47;;;;;;;0.00;0.00;;;17.60;99.90;;;;;;5002578;28;20231;-74
2022/09/24 11:05:21;;;;;;;0.00;0.00;;;17.90;99.90;;;;;;4996357;28;20472;-74
2022/09/24 11:08:10;;;;;;;0.00;0.00;;;18.20;99.90;;;;;;4997685;28;20200;-74
2022/09/24 11:11:08;;;;;;;0.00;0.00;;;18.30;99.90;;;;;;4993448;28;20216;-74
2022/09/24 11:13:44;;;;;;;0.00;0.00;;;18.40;99.90;;;;;;4993196;28;20254;-75
2022/09/24 11:16:56;;;;;;;0.00;0.00;;;18.50;99.90;;;;;;5001281;28;20207;-74
2022/09/24 11:19:47;;;;;;;0.00;0.00;;;18.80;99.90;;;;;;4983151;28;20942;-75
2022/09/24 11:22:17;;;;;;;0.00;0.00;;;19.00;99.90;;;;;;4994394;28;20266;-75
2022/09/24 11:25:00;;;;;;;0.00;0.00;;;19.10;99.90;;;;;;4988980;28;20266;-74
2022/09/24 11:27:46;;;;;;;0.00;0.00;;;19.00;99.90;;;;;;4980101;28;20207;-75
2022/09/24 11:30:17;;;;;;;0.00;0.00;;;19.10;99.90;;;;;;4994164;28;20209;-75
2022/09/24 11:33:02;;;;;;;0.00;0.00;;;19.30;99.90;;;;;;4993601;28;20224;-75
2022/09/24 11:35:43;;;;;;;0.00;0.00;;;19.60;99.90;;;;;;4994745;28;20222;-75
2022/09/24 11:38:17;;;;;;;0.00;0.00;;;19.80;99.90;;;;;;4987054;28;20204;-75
2022/09/24 11:41:03;;;;;;;0.00;0.00;;;19.90;99.90;;;;;;4993846;28;20550;-75
2022/09/24 11:43:56;;;;;;;0.00;0.00;;;19.80;99.90;;;;;;4993301;28;20220;-75
2022/09/24 11:46:43;;;;;;;0.00;0.00;;;19.80;99.90;;;;;;4985771;28;20204;-75
2022/09/24 11:49:27;;;;;;;0.00;0.00;;;19.70;99.90;;;;;;4990159;28;20726;-74
2022/09/24 11:52:03;;;;;;;0.00;0.00;;;19.70;99.90;;;;;;4994318;28;20220;-75
2022/09/24 11:54:35;;;;;;;0.00;0.00;;;19.90;99.90;;;;;;4994101;28;20286;-75
2022/09/24 11:57:11;;;;;;;0.00;0.00;;;20.00;99.90;;;;;;4994162;28;20231;-74
2022/09/24 11:59:45;;;;;;;0.00;0.00;;;20.00;99.90;;;;;;4976526;28;20199;-75
2022/09/24 12:02:18;;;;;;;0.00;0.00;;;19.90;99.90;;;;;;4993290;28;20553;-73
2022/09/24 12:04:54;;;;;;;0.00;0.00;;;20.20;99.90;;;;;;4993470;28;20196;-74
2022/09/24 12:07:27;;;;;;;0.00;0.00;;;20.20;99.90;;;;;;4993591;28;20204;-75
2022/09/24 12:10:00;;;;;;;0.00;0.00;;;20.10;99.90;;;;;;4994337;28;20204;-74
2022/09/24 12:12:33;;;;;;;0.00;0.00;;;20.20;99.90;;;;;;4992890;28;20282;-75
2022/09/24 12:15:06;;;;;;;0.00;0.00;;;20.00;99.90;;;;;;4993520;28;20255;-74
2022/09/24 12:17:39;;;;;;;0.00;0.00;;;19.80;99.90;;;;;;4993160;28;20749;-74
2022/09/24 12:20:19;;;;;;;0.00;0.00;;;19.60;99.90;;;;;;4993546;28;20745;-75
2022/09/24 12:22:48;;;;;;;0.00;0.00;;;19.80;99.90;;;;;;4999080;28;20251;-75
2022/09/24 12:25:16;;;;;;;0.00;0.00;;;19.90;99.90;;;;;;4999206;28;20571;-75
2022/09/24 12:27:45;;;;;;;0.00;0.00;;;20.20;99.90;;;;;;4992813;28;20536;-74
2022/09/24 12:33:17;;;;;;;0.00;0.00;;;20.70;99.90;;;;;;4992986;28;20278;-75
2022/09/24 12:36:00;;;;;;;0.00;0.00;;;20.60;99.90;;;;;;4993590;28;20205;-75
2022/09/24 12:38:35;;;;;;;0.00;0.00;;;20.60;99.90;;;;;;4992306;28;20266;-75
2022/09/24 12:41:29;;;;;;;0.00;0.00;;;20.50;99.90;;;;;;5003904;28;20693;-75
2022/09/24 12:44:04;;;;;;;0.00;0.00;;;20.90;99.90;;;;;;4991129;28;20219;-74
2022/09/24 12:46:39;;;;;;;0.00;0.00;;;21.20;99.90;;;;;;4992801;28;20232;-75
2022/09/24 12:49:18;;;;;;;0.00;0.00;;;21.10;99.90;;;;;;4988344;28;20200;-75
2022/09/24 12:51:48;;;;;;;0.00;0.00;;;21.20;99.90;;;;;;4996681;28;20597;-74
2022/09/24 12:54:25;;;;;;;0.00;0.00;;;21.30;99.60;;;;;;4978152;28;20326;-74
2022/09/24 12:57:05;;;;;;;0.00;0.00;;;21.40;99.50;;;;;;4993105;28;20200;-74
2022/09/24 12:59:33;;;;;;;0.00;0.00;;;21.60;98.70;;;;;;4990585;28;20208;-75
2022/09/24 13:02:15;;;;;;;0.00;0.00;;;21.70;98.70;;;;;;4992119;28;20204;-75
2022/09/24 13:04:52;;;;;;;0.00;0.00;;;21.90;98.50;;;;;;4992652;28;20200;-75
2022/09/24 13:07:33;;;;;;;0.00;0.00;;;21.80;98.00;;;;;;4991909;28;20199;-76
2022/09/24 13:10:24;;;;;;;0.00;0.00;;;21.80;98.70;;;;;;4990015;28;20227;-75
2022/09/24 13:12:53;;;;;;;0.00;0.00;;;21.80;98.50;;;;;;4996577;28;20251;-76
2022/09/24 13:15:30;;;;;;;0.00;0.00;;;21.70;97.10;;;;;;4991343;28;20240;-76
2022/09/24 13:18:03;;;;;;;0.00;0.00;;;21.50;97.10;;;;;;4992665;28;20192;-76
2022/09/24 13:20:33;;;;;;;0.00;0.00;;;21.50;97.30;;;;;;4991822;28;20232;-76
2022/09/24 13:23:14;;;;;;;0.00;0.00;;;21.70;97.80;;;;;;4994880;28;20278;-76
2022/09/24 13:25:54;;;;;;;0.00;0.00;;;21.90;96.90;;;;;;4973167;28;20433;-76
2022/09/24 13:28:25;;;;;;;0.00;0.00;;;21.90;96.00;;;;;;4992112;28;20231;-76
2022/09/24 13:31:12;;;;;;;0.00;0.00;;;21.60;95.80;;;;;;4991648;28;20223;-76
2022/09/24 13:33:43;;;;;;;0.00;0.00;;;21.50;96.10;;;;;;4988605;28;20226;-76